Terminal Aerodrome Forecast
Issued by NWS Blacksburg, VA

Current Version | Previous Version | Graphics & Text | Print | Product List | Glossary On
Versions: 1 2 3 4 5 6 7 8 9 10 11 12 13 14 15 16 17 18 19 20 21 22 23 24 25 26 27 28
000
FTUS41 KRNK 192017 AAB
TAFBLF
TAF AMD
KBLF 192017Z 1920/2018 35006KT P6SM VCSH BKN022 BKN035
      TEMPO 1921/1924 SCT035 BKN080
     FM200400 25004KT 5SM BR BKN020
     FM200800 24004KT 3SM BR OVC010
      TEMPO 2009/2012 1SM BR OVC004
     FM201200 26005KT P6SM VCSH BKN015=

USA.gov is the U.S. government's official web portal to all federal, state and local government web resources and services.